Skip Navigation Links Skip Navigation Links

Current Weather

Somerset, Somerville, N.J.

For information only: do not use for flight planning or navigation.
Latest weather
Observation time Saturday, June 6, 2020 6:53 PM EDT
Local time Saturday, June 6, 2020 7:45 PM EDT
Flight conditions Visual Meteorological Conditions
Winds
Wind direction Northwest (320°)
Wind speed 10 mph
Wind gusting to 20 mph
Visibility 10 mi.
Sky condition
Ceiling unlimited
Sky clear
Temperature 85°F
Dewpoint 50°F
Altimeter 29.72 in.Hg
Derived measurements
Relative humidity 30%
Heat index 85°F
Density altitude 2162 ft.
Sea-level pressure 29.71 in.Hg
Remarks
Fully automated report.
Automated weather observing station with precipitation discriminator.
METAR KSMQ 062253Z AUTO 32009G17KT 10SM CLR 29/10 A2972 RMK AO2 SLP061 T02940100

Settings

Location code

InnerDrive.Weather 4.0.6770.0 Release CLR 4.0.30319.42000
Copyright ©2018 Inner Drive Technology. All rights reserved. Portions Copyright ©1986-2018 David Braverman.

Find weather

Site navigation


Skip Navigation Links

Place info

Page info

PayPal - The safer, easier way to pay online!

Return home.

Copyright ©2020 Inner Drive Technology. Purveyors of fine, hand-crafted computer software. Page printed 2020-06-06T23:45:03 UTC.